createdAt,value
2018-12-21T00:00:45.046Z,32.58
2018-12-21T00:03:15.164Z,33.83
2018-12-21T00:05:45.373Z,31.05
2018-12-21T00:08:15.785Z,28.65
2018-12-21T00:10:46.208Z,30.25
2018-12-21T00:13:16.544Z,30.90
2018-12-21T00:15:46.994Z,32.38
2018-12-21T00:18:17.259Z,35.13
2018-12-21T00:20:47.322Z,33.85
2018-12-21T00:23:17.602Z,34.67
2018-12-21T00:25:47.773Z,34.92
2018-12-21T00:28:17.977Z,33.33
2018-12-21T00:30:46.707Z,35.10
2018-12-21T00:33:22.854Z,31.57
2018-12-21T00:35:58.652Z,35.00
2018-12-21T00:38:33.637Z,33.80
2018-12-21T00:41:09.271Z,32.53
2018-12-21T00:43:44.512Z,35.30
2018-12-21T00:46:24.418Z,35.78
2018-12-21T00:48:54.863Z,35.70
2018-12-21T00:51:30.204Z,38.30
2018-12-21T00:53:57.311Z,33.92
2018-12-21T00:56:27.394Z,35.90
2018-12-21T00:58:57.606Z,52.83
2018-12-21T01:01:29.784Z,44.13
2018-12-21T01:03:59.789Z,51.00
2018-12-21T01:06:30.050Z,47.27
2018-12-21T01:09:00.826Z,47.20
2018-12-21T01:11:31.115Z,48.80
2018-12-21T01:14:01.298Z,38.78
2018-12-21T01:16:32.136Z,40.85
2018-12-21T01:19:02.389Z,41.40
2018-12-21T01:21:38.759Z,43.65
2018-12-21T01:24:05.858Z,40.15
2018-12-21T01:26:36.215Z,45.33
2018-12-21T01:29:06.686Z,41.42
2018-12-21T01:31:37.003Z,43.75
2018-12-21T01:34:07.254Z,45.12
2018-12-21T01:36:37.507Z,43.25
2018-12-21T01:39:08.587Z,49.18
2018-12-21T01:41:38.818Z,53.20
2018-12-21T01:44:09.219Z,46.20
2018-12-21T01:46:39.249Z,43.75
2018-12-21T01:49:09.341Z,54.70
2018-12-21T01:51:46.903Z,47.43
2018-12-21T01:54:11.677Z,46.45
2018-12-21T01:56:41.894Z,45.98
2018-12-21T01:59:12.094Z,51.08
2018-12-21T02:01:42.398Z,50.20
2018-12-21T02:04:12.483Z,52.40
2018-12-21T02:06:42.574Z,52.85
2018-12-21T02:09:12.796Z,49.60
2018-12-21T02:11:42.828Z,49.60
2018-12-21T02:14:13.059Z,48.52
2018-12-21T02:16:44.222Z,46.28
2018-12-21T02:19:14.583Z,47.60
2018-12-21T02:21:44.521Z,48.10
2018-12-21T02:24:14.703Z,43.85
2018-12-21T02:26:45.161Z,47.05
2018-12-21T02:29:15.838Z,47.17
2018-12-21T02:31:46.839Z,52.33
2018-12-21T02:34:17.083Z,52.60
2018-12-21T02:36:47.364Z,51.53
2018-12-21T02:39:18.141Z,51.55
2018-12-21T02:41:48.553Z,58.90
2018-12-21T02:44:19.170Z,62.40
2018-12-21T02:46:49.241Z,61.92
2018-12-21T02:49:19.272Z,60.83
2018-12-21T02:51:49.556Z,66.67
2018-12-21T02:54:19.854Z,64.20
2018-12-21T02:56:49.937Z,57.35
2018-12-21T02:59:20.016Z,61.28
2018-12-21T03:01:51.409Z,68.60
2018-12-21T03:04:21.415Z,65.90
2018-12-21T03:06:51.661Z,63.83
2018-12-21T03:09:21.806Z,66.47
2018-12-21T03:11:51.826Z,64.55
2018-12-21T03:14:22.990Z,68.42
2018-12-21T03:16:53.209Z,57.35
2018-12-21T03:19:23.575Z,61.50
2018-12-21T03:21:53.665Z,61.70
2018-12-21T03:24:24.466Z,62.43
2018-12-21T03:26:54.710Z,65.95
2018-12-21T03:29:25.070Z,72.37
2018-12-21T03:31:55.340Z,70.95
2018-12-21T03:34:26.473Z,59.15
2018-12-21T03:36:57.733Z,69.20
2018-12-21T03:39:28.707Z,70.85
2018-12-21T03:41:58.859Z,75.40
2018-12-21T03:44:29.329Z,64.92
2018-12-21T03:46:59.346Z,64.92
2018-12-21T03:49:30.373Z,70.32
2018-12-21T03:52:00.404Z,67.00
2018-12-21T03:54:30.525Z,64.35
2018-12-21T03:57:00.701Z,62.90
2018-12-21T03:59:30.864Z,64.22
2018-12-21T04:02:00.762Z,74.90
2018-12-21T04:04:31.184Z,72.35
2018-12-21T04:07:01.549Z,71.70
2018-12-21T04:09:32.083Z,70.70
2018-12-21T04:12:01.914Z,64.55
2018-12-21T04:14:32.136Z,78.02
2018-12-21T04:17:02.338Z,81.97
2018-12-21T04:19:32.679Z,78.37
2018-12-21T04:22:02.886Z,70.78
2018-12-21T04:24:32.999Z,66.67
2018-12-21T04:27:03.336Z,71.57
2018-12-21T04:29:34.719Z,68.07
2018-12-21T04:32:04.836Z,76.37
2018-12-21T04:34:35.867Z,74.58
2018-12-21T04:37:05.841Z,71.72
2018-12-21T04:39:35.868Z,73.85
2018-12-21T04:42:06.142Z,69.20
2018-12-21T04:44:36.253Z,70.22
2018-12-21T04:47:06.341Z,75.62
2018-12-21T04:49:36.356Z,76.40
2018-12-21T04:52:07.985Z,68.90
2018-12-21T04:54:38.094Z,66.70
2018-12-21T04:57:08.273Z,74.32
2018-12-21T04:59:38.471Z,72.92
2018-12-21T05:02:08.512Z,82.62
2018-12-21T05:04:39.675Z,67.03
2018-12-21T05:07:12.477Z,73.20
2018-12-21T05:09:42.838Z,76.17
2018-12-21T05:12:12.978Z,86.45
2018-12-21T05:14:43.388Z,82.90
2018-12-21T05:17:14.568Z,79.00
2018-12-21T05:19:44.759Z,75.80
2018-12-21T05:22:14.942Z,86.42
2018-12-21T05:24:46.058Z,80.70
2018-12-21T05:27:16.151Z,77.42
2018-12-21T05:29:46.312Z,83.03
2018-12-21T05:32:17.388Z,73.52
2018-12-21T05:34:49.864Z,76.77
2018-12-21T05:37:19.962Z,71.12
2018-12-21T05:39:49.973Z,76.25
2018-12-21T05:42:22.161Z,75.75
2018-12-21T05:44:52.531Z,74.17
2018-12-21T05:47:23.991Z,74.65
2018-12-21T05:49:55.239Z,73.78
2018-12-21T05:52:25.453Z,63.78
2018-12-21T05:54:55.592Z,74.67
2018-12-21T05:57:25.685Z,63.87
2018-12-21T05:59:55.594Z,67.97
2018-12-21T06:02:26.011Z,75.55
2018-12-21T06:04:56.091Z,82.47
2018-12-21T06:07:26.239Z,69.32
2018-12-21T06:09:56.490Z,73.30
2018-12-21T06:12:26.756Z,80.72
2018-12-21T06:14:57.070Z,72.70
2018-12-21T06:17:27.143Z,79.62
2018-12-21T06:19:58.318Z,87.05
2018-12-21T06:22:28.641Z,72.53
2018-12-21T06:24:58.839Z,67.17
2018-12-21T06:27:29.115Z,70.62
2018-12-21T06:29:59.558Z,73.83
2018-12-21T06:32:29.807Z,76.02
2018-12-21T06:34:59.889Z,82.65
2018-12-21T06:37:31.238Z,73.60
2018-12-21T06:40:01.530Z,73.57
2018-12-21T06:42:31.599Z,66.00
2018-12-21T06:45:02.957Z,65.42
2018-12-21T06:47:34.009Z,72.27
2018-12-21T06:50:04.246Z,72.58
2018-12-21T06:52:35.447Z,83.17
2018-12-21T06:55:06.199Z,89.55
2018-12-21T06:57:36.858Z,76.87
2018-12-21T07:00:08.677Z,79.70
2018-12-21T07:02:38.794Z,75.62
2018-12-21T07:05:09.073Z,79.75
2018-12-21T07:07:40.340Z,89.58
2018-12-21T07:10:12.692Z,86.08
2018-12-21T07:12:42.863Z,78.78
2018-12-21T07:15:13.367Z,71.70
2018-12-21T07:17:43.272Z,81.70
2018-12-21T07:20:13.276Z,79.47
2018-12-21T07:22:44.477Z,72.25
2018-12-21T07:25:14.915Z,68.57
2018-12-21T07:27:45.160Z,66.82
2018-12-21T07:30:15.384Z,66.72
2018-12-21T07:32:46.491Z,76.33
2018-12-21T07:35:18.185Z,72.85
2018-12-21T07:37:49.011Z,77.85
2018-12-21T07:40:19.417Z,76.25
2018-12-21T07:42:50.931Z,75.57
2018-12-21T07:45:22.693Z,68.70
2018-12-21T07:47:52.787Z,79.32
2018-12-21T07:50:22.911Z,74.22
2018-12-21T07:52:53.428Z,83.37
2018-12-21T07:55:24.018Z,75.00
2018-12-21T07:57:54.155Z,79.07
2018-12-21T08:00:24.319Z,69.00
2018-12-21T08:02:54.415Z,66.60
2018-12-21T08:05:25.275Z,79.53
2018-12-21T08:07:55.674Z,80.22
2018-12-21T08:10:26.797Z,78.97
2018-12-21T08:12:56.977Z,92.67
2018-12-21T08:15:27.236Z,89.52
2018-12-21T08:17:57.302Z,76.17
2018-12-21T08:20:27.613Z,98.52
2018-12-21T08:22:58.927Z,91.17
2018-12-21T08:25:29.318Z,92.67
2018-12-21T08:27:59.384Z,86.10
2018-12-21T08:30:31.311Z,96.53
2018-12-21T08:33:01.556Z,90.00
2018-12-21T08:35:31.610Z,76.33
2018-12-21T08:38:01.919Z,76.70
2018-12-21T08:40:32.182Z,75.70
2018-12-21T08:43:02.460Z,68.15
2018-12-21T08:45:32.633Z,72.08
2018-12-21T08:48:03.512Z,65.45
2018-12-21T08:50:33.616Z,72.97
2018-12-21T08:53:04.723Z,61.73
2018-12-21T08:55:35.659Z,67.92
2018-12-21T08:58:05.901Z,64.17
2018-12-21T09:00:37.141Z,64.15
2018-12-21T09:03:07.426Z,64.00
2018-12-21T09:05:37.903Z,66.97
2018-12-21T09:08:08.161Z,72.32
2018-12-21T09:10:38.314Z,82.82
2018-12-21T09:13:08.570Z,71.65
2018-12-21T09:15:39.118Z,69.00
2018-12-21T09:18:09.742Z,70.47
2018-12-21T09:20:40.044Z,74.53
2018-12-21T09:23:10.170Z,60.00
2018-12-21T09:25:40.297Z,62.93
2018-12-21T09:28:10.788Z,65.60
2018-12-21T09:30:41.099Z,73.65
2018-12-21T09:33:12.348Z,71.20
2018-12-21T09:35:42.852Z,70.83
2018-12-21T09:38:12.979Z,65.80
2018-12-21T09:40:44.018Z,69.60
2018-12-21T09:43:14.974Z,63.55
2018-12-21T09:45:46.238Z,67.53
2018-12-21T09:48:16.409Z,75.05
2018-12-21T09:50:46.506Z,76.50
2018-12-21T09:53:16.917Z,62.73
2018-12-21T09:55:46.900Z,74.35
2018-12-21T09:58:16.893Z,63.55
2018-12-21T10:00:46.935Z,73.62
2018-12-21T10:03:16.987Z,64.97
2018-12-21T10:05:47.099Z,83.07
2018-12-21T10:08:17.169Z,82.80
2018-12-21T10:10:47.518Z,71.62
2018-12-21T10:13:17.956Z,80.03
2018-12-21T10:15:47.827Z,77.03
2018-12-21T10:18:17.719Z,90.50
2018-12-21T10:20:48.113Z,90.75
2018-12-21T10:23:18.515Z,90.10
2018-12-21T10:25:48.550Z,90.07
2018-12-21T10:28:18.786Z,76.67
2018-12-21T10:30:48.800Z,89.50
2018-12-21T10:33:18.594Z,67.87
2018-12-21T10:35:48.505Z,87.67
2018-12-21T10:38:18.475Z,70.90
2018-12-21T10:40:48.516Z,78.67
2018-12-21T10:43:19.238Z,79.87
2018-12-21T10:45:49.411Z,79.17
2018-12-21T10:48:20.222Z,74.00
2018-12-21T10:50:54.143Z,84.10
2018-12-21T10:53:24.230Z,79.15
2018-12-21T10:55:54.404Z,72.45
2018-12-21T10:58:24.525Z,74.20
2018-12-21T11:00:55.830Z,80.03
2018-12-21T11:03:27.028Z,81.57
2018-12-21T11:05:57.126Z,75.90
2018-12-21T11:08:27.496Z,72.22
2018-12-21T11:10:57.914Z,76.45
2018-12-21T11:13:28.158Z,73.20
2018-12-21T11:15:58.531Z,79.15
2018-12-21T11:18:28.877Z,76.62
2018-12-21T11:20:59.986Z,75.72
2018-12-21T11:23:30.161Z,80.30
2018-12-21T11:26:01.292Z,70.15
2018-12-21T11:28:31.382Z,63.48
2018-12-21T11:31:02.173Z,70.37
2018-12-21T11:33:32.361Z,68.60
2018-12-21T11:36:02.746Z,72.62
2018-12-21T11:38:32.851Z,75.03
2018-12-21T11:41:03.062Z,83.27
2018-12-21T11:43:35.271Z,86.30
2018-12-21T11:46:06.683Z,67.25
2018-12-21T11:48:36.966Z,80.67
2018-12-21T11:51:07.077Z,71.12
2018-12-21T11:53:37.304Z,73.30
2018-12-21T11:56:08.609Z,61.10
2018-12-21T11:58:38.936Z,66.25
2018-12-21T12:01:09.105Z,69.87
2018-12-21T12:03:44.950Z,69.75
2018-12-21T12:06:15.106Z,72.32
2018-12-21T12:08:45.819Z,73.75
2018-12-21T12:11:15.890Z,69.35
2018-12-21T12:13:46.061Z,70.12
2018-12-21T12:16:15.956Z,72.92
2018-12-21T12:18:46.209Z,76.97
2018-12-21T12:21:16.577Z,73.92
2018-12-21T12:23:47.192Z,75.75
2018-12-21T12:26:17.772Z,74.00
2018-12-21T12:28:47.928Z,79.22
2018-12-21T12:31:22.252Z,79.15
2018-12-21T12:33:52.277Z,70.65
2018-12-21T12:36:22.385Z,62.78
2018-12-21T12:38:52.764Z,69.70
2018-12-21T12:41:23.902Z,60.85
2018-12-21T12:43:54.593Z,52.90
2018-12-21T12:46:24.986Z,54.85
2018-12-21T12:48:55.220Z,72.40
2018-12-21T12:51:25.881Z,70.28
2018-12-21T12:53:56.779Z,75.28
2018-12-21T12:56:31.796Z,78.97
2018-12-21T12:59:01.873Z,91.00
2018-12-21T13:01:33.782Z,81.97
2018-12-21T13:04:08.165Z,96.95
2018-12-21T13:06:38.580Z,94.37
2018-12-21T13:09:09.715Z,92.02
2018-12-21T13:11:40.343Z,97.75
2018-12-21T13:14:10.785Z,95.30
2018-12-21T13:16:41.856Z,101.82
2018-12-21T13:19:11.955Z,92.37
2018-12-21T13:21:47.191Z,92.47
2018-12-21T13:24:17.974Z,94.72
2018-12-21T13:26:49.059Z,102.22
2018-12-21T13:29:20.416Z,104.97
2018-12-21T13:31:51.875Z,107.63
2018-12-21T13:34:23.271Z,111.95
2018-12-21T13:36:55.644Z,102.80
2018-12-21T13:39:25.994Z,105.63
2018-12-21T13:41:57.749Z,94.75
2018-12-21T13:44:27.795Z,93.33
2018-12-21T13:46:58.579Z,94.50
2018-12-21T13:49:29.146Z,83.82
2018-12-21T13:51:59.428Z,88.12
2018-12-21T13:54:29.643Z,83.15
2018-12-21T13:57:01.671Z,78.20
2018-12-21T13:59:39.339Z,92.62
2018-12-21T14:02:10.174Z,84.22
2018-12-21T14:04:40.913Z,94.37
2018-12-21T14:07:14.105Z,105.32
2018-12-21T14:09:44.883Z,89.03
2018-12-21T14:12:15.994Z,88.00
2018-12-21T14:14:46.250Z,97.72
2018-12-21T14:17:16.485Z,91.10
2018-12-21T14:19:46.989Z,88.92
2018-12-21T14:22:18.439Z,72.95
2018-12-21T14:24:50.065Z,76.90
2018-12-21T14:27:20.727Z,81.63
2018-12-21T14:29:51.843Z,77.27
2018-12-21T14:32:25.423Z,77.90
2018-12-21T14:34:55.924Z,72.32
2018-12-21T14:37:26.760Z,70.52
2018-12-21T14:39:58.323Z,70.08
2018-12-21T14:42:28.552Z,68.10
2018-12-21T14:45:00.504Z,61.05
2018-12-21T14:47:31.601Z,55.98
2018-12-21T14:50:02.404Z,60.98
2018-12-21T14:52:33.691Z,70.70
2018-12-21T14:55:05.150Z,55.28
2018-12-21T14:57:35.487Z,44.08
2018-12-21T15:00:07.762Z,48.58
2018-12-21T15:02:37.640Z,47.33
2018-12-21T15:05:11.444Z,50.25
2018-12-21T15:07:41.342Z,57.98
2018-12-21T15:10:11.832Z,48.23
2018-12-21T15:12:41.725Z,49.73
2018-12-21T15:15:11.535Z,49.18
2018-12-21T15:17:41.513Z,47.70
2018-12-21T15:20:12.249Z,44.58
2018-12-21T15:22:42.113Z,42.15
2018-12-21T15:25:12.184Z,40.63
2018-12-21T15:27:42.166Z,37.85
2018-12-21T15:30:13.045Z,39.85
2018-12-21T15:32:43.040Z,44.63
2018-12-21T15:35:13.358Z,37.67
2018-12-21T15:37:43.540Z,40.25
2018-12-21T15:40:13.617Z,33.80
2018-12-21T15:42:43.740Z,40.83
2018-12-21T15:45:14.128Z,46.60
2018-12-21T15:47:44.294Z,44.23
2018-12-21T15:50:14.472Z,52.60
2018-12-21T15:52:44.531Z,51.30
2018-12-21T15:55:14.293Z,56.85
2018-12-21T15:57:44.922Z,50.43
2018-12-21T16:00:16.855Z,53.80
2018-12-21T16:02:50.433Z,54.42
2018-12-21T16:05:20.739Z,60.03
2018-12-21T16:07:51.668Z,53.60
2018-12-21T16:10:22.691Z,55.45
2018-12-21T16:12:52.634Z,65.25
2018-12-21T16:15:22.774Z,49.77
2018-12-21T16:17:52.688Z,54.10
2018-12-21T16:20:22.900Z,67.00
2018-12-21T16:22:53.568Z,87.53
2018-12-21T16:25:23.817Z,67.60
2018-12-21T16:27:53.682Z,69.77
2018-12-21T16:30:23.756Z,66.80
2018-12-21T16:32:53.513Z,62.83
2018-12-21T16:35:23.661Z,63.50
2018-12-21T16:37:53.610Z,60.00
2018-12-21T16:40:23.840Z,56.45
2018-12-21T16:42:54.471Z,54.42
2018-12-21T16:45:24.796Z,55.60
2018-12-21T16:47:55.080Z,79.97
2018-12-21T16:50:25.231Z,57.73
2018-12-21T16:52:56.944Z,55.38
2018-12-21T16:55:27.478Z,55.03
2018-12-21T16:57:57.866Z,45.50
2018-12-21T17:00:29.166Z,57.15
2018-12-21T17:02:59.601Z,61.58
2018-12-21T17:05:29.900Z,63.02
2018-12-21T17:08:00.005Z,81.92
2018-12-21T17:10:30.503Z,98.45
2018-12-21T17:13:00.790Z,107.37
2018-12-21T17:15:30.963Z,106.37
2018-12-21T17:18:01.187Z,102.65
2018-12-21T17:20:31.522Z,100.40
2018-12-21T17:23:01.908Z,92.53
2018-12-21T17:25:32.424Z,96.10
2018-12-21T17:28:02.567Z,96.67
2018-12-21T17:30:33.585Z,97.15
2018-12-21T17:33:03.851Z,89.87
2018-12-21T17:35:34.178Z,88.82
2018-12-21T17:38:04.433Z,108.05
2018-12-21T17:40:34.777Z,114.42
2018-12-21T17:43:04.634Z,110.85
2018-12-21T17:45:35.601Z,181.05
2018-12-21T17:48:05.716Z,223.13
2018-12-21T17:50:35.625Z,189.90
2018-12-21T17:53:06.307Z,144.97
2018-12-21T17:55:36.417Z,154.87
2018-12-21T17:58:07.862Z,120.62
2018-12-21T18:00:38.730Z,105.43
2018-12-21T18:03:11.028Z,99.05
2018-12-21T18:05:41.381Z,100.33
2018-12-21T18:08:12.054Z,78.45
2018-12-21T18:10:42.169Z,72.80
2018-12-21T18:13:12.440Z,73.80
2018-12-21T18:15:42.694Z,70.22
2018-12-21T18:18:14.823Z,66.45
2018-12-21T18:20:44.709Z,53.85
2018-12-21T18:23:15.784Z,69.10
2018-12-21T18:25:46.212Z,62.30
2018-12-21T18:28:22.432Z,78.25
2018-12-21T18:30:55.979Z,75.75
2018-12-21T18:33:27.033Z,79.90
2018-12-21T18:35:57.317Z,93.45
2018-12-21T18:38:29.468Z,80.53
2018-12-21T18:41:00.721Z,82.92
2018-12-21T18:43:31.090Z,93.47
2018-12-21T18:46:01.579Z,98.15
2018-12-21T18:48:31.757Z,96.08
2018-12-21T18:51:01.684Z,96.78
2018-12-21T18:53:31.809Z,94.42
2018-12-21T18:56:02.473Z,93.15
2018-12-21T18:58:33.682Z,91.70
2018-12-21T19:01:03.917Z,95.15
2018-12-21T19:03:34.097Z,99.75
2018-12-21T19:06:04.888Z,94.87
2018-12-21T19:08:35.021Z,76.85
2018-12-21T19:11:05.182Z,93.15
2018-12-21T19:13:35.288Z,115.90
2018-12-21T19:16:06.619Z,115.40
2018-12-21T19:18:37.704Z,93.90
2018-12-21T19:21:07.943Z,100.05
2018-12-21T19:23:38.131Z,100.85
2018-12-21T19:26:08.972Z,88.62
2018-12-21T19:28:38.861Z,97.85
2018-12-21T19:31:11.813Z,89.37
2018-12-21T19:33:42.196Z,92.25
2018-12-21T19:36:13.386Z,91.25
2018-12-21T19:38:43.789Z,95.50
2018-12-21T19:41:14.003Z,93.65
2018-12-21T19:43:44.657Z,99.07
2018-12-21T19:46:15.765Z,97.35
2018-12-21T19:48:45.853Z,94.97
2018-12-21T19:51:16.860Z,104.63
2018-12-21T19:53:48.856Z,93.20
2018-12-21T19:56:39.312Z,96.12
2018-12-21T19:59:09.633Z,93.67
2018-12-21T20:01:39.800Z,86.08
2018-12-21T20:04:09.926Z,106.87
2018-12-21T20:06:40.192Z,97.12
2018-12-21T20:09:11.441Z,99.92
2018-12-21T20:11:41.559Z,112.00
2018-12-21T20:14:12.878Z,111.95
2018-12-21T20:16:43.389Z,103.65
2018-12-21T20:19:13.620Z,88.30
2018-12-21T20:21:43.820Z,91.53
2018-12-21T20:24:15.124Z,88.05
2018-12-21T20:26:49.457Z,102.10
2018-12-21T20:29:20.016Z,85.55
2018-12-21T20:31:50.139Z,90.12
2018-12-21T20:34:21.584Z,82.17
2018-12-21T20:36:52.003Z,85.80
2018-12-21T20:39:26.610Z,104.70
2018-12-21T20:41:57.701Z,97.45
2018-12-21T20:44:28.641Z,70.95
2018-12-21T20:47:02.513Z,72.35
2018-12-21T20:49:32.886Z,104.15
2018-12-21T20:52:03.107Z,101.55
2018-12-21T20:54:34.232Z,83.35
2018-12-21T20:57:06.755Z,89.45
2018-12-21T20:59:36.900Z,76.65
2018-12-21T21:02:07.124Z,70.40
2018-12-21T21:04:38.445Z,87.20
2018-12-21T21:07:09.654Z,83.80
2018-12-21T21:09:41.060Z,90.20
2018-12-21T21:12:12.004Z,110.22
2018-12-21T21:14:42.485Z,81.57
2018-12-21T21:17:12.653Z,84.85
2018-12-21T21:19:43.953Z,77.45
2018-12-21T21:22:14.042Z,74.03
2018-12-21T21:24:45.801Z,62.23
2018-12-21T21:35:01.913Z,54.30
2018-12-21T21:37:31.946Z,52.40
2018-12-21T21:40:02.107Z,31.87
2018-12-21T21:42:32.376Z,31.90
2018-12-21T21:45:02.756Z,28.27
2018-12-21T21:47:33.017Z,35.80
2018-12-21T21:50:03.334Z,35.33
2018-12-21T21:52:33.764Z,30.27
2018-12-21T21:55:03.618Z,29.65
2018-12-21T21:57:39.309Z,33.63
2018-12-21T22:00:07.142Z,30.35
2018-12-21T22:02:37.261Z,34.98
2018-12-21T22:05:08.379Z,35.50
2018-12-21T22:07:38.741Z,35.10
2018-12-21T22:10:10.926Z,39.55
2018-12-21T22:12:41.066Z,53.80
2018-12-21T22:15:13.060Z,54.33
2018-12-21T22:17:43.631Z,52.90
2018-12-21T22:20:13.915Z,57.58
2018-12-21T22:22:43.935Z,44.58
2018-12-21T22:25:13.924Z,33.13
2018-12-21T22:27:47.995Z,33.50
2018-12-21T22:30:16.392Z,29.50
2018-12-21T22:32:46.494Z,29.18
2018-12-21T22:35:17.145Z,30.15
2018-12-21T22:37:47.259Z,32.55
2018-12-21T22:40:17.200Z,31.33
2018-12-21T22:42:47.405Z,24.72
2018-12-21T22:45:19.950Z,34.35
2018-12-21T22:47:49.963Z,35.58
2018-12-21T22:50:19.927Z,26.68
2018-12-21T22:52:49.890Z,24.92
2018-12-21T22:55:21.729Z,21.25
2018-12-21T22:57:56.397Z,24.70
2018-12-21T23:00:28.748Z,23.80
2018-12-21T23:02:58.711Z,22.58
2018-12-21T23:05:29.341Z,32.48
2018-12-21T23:07:59.230Z,29.30
2018-12-21T23:10:29.337Z,26.97
2018-12-21T23:12:59.587Z,27.25
2018-12-21T23:15:29.817Z,25.92
2018-12-21T23:18:01.245Z,30.77
2018-12-21T23:20:31.107Z,26.27
2018-12-21T23:23:00.925Z,26.05
2018-12-21T23:25:31.177Z,24.43
2018-12-21T23:28:04.941Z,26.93
2018-12-21T23:30:33.451Z,27.10
2018-12-21T23:33:03.561Z,24.95
2018-12-21T23:35:33.241Z,30.23
2018-12-21T23:38:03.450Z,32.83
2018-12-21T23:40:34.308Z,29.87
2018-12-21T23:43:04.095Z,29.42
2018-12-21T23:45:33.834Z,32.83
2018-12-21T23:48:04.014Z,34.98
2018-12-21T23:50:34.071Z,45.85
2018-12-21T23:53:03.983Z,42.25
2018-12-21T23:55:33.769Z,39.85
2018-12-21T23:58:03.775Z,36.33
